createdAt,value
2023-01-03T00:02:26.838Z,28.08
2023-01-03T00:04:54.705Z,26.98
2023-01-03T00:07:34.847Z,22.98
2023-01-03T00:10:11.068Z,26.23
2023-01-03T00:12:40.179Z,33.47
2023-01-03T00:15:08.883Z,23.38
2023-01-03T00:17:36.640Z,29.45
2023-01-03T00:20:04.568Z,25.88
2023-01-03T00:22:32.985Z,24.65
2023-01-03T00:25:00.955Z,24.60
2023-01-03T00:27:28.995Z,24.75
2023-01-03T00:29:58.155Z,24.63
2023-01-03T00:32:25.834Z,27.25
2023-01-03T00:35:01.447Z,26.42
2023-01-03T00:37:32.330Z,25.40
2023-01-03T00:40:00.115Z,25.13
2023-01-03T00:42:27.804Z,23.90
2023-01-03T00:44:55.613Z,23.95
2023-01-03T00:47:24.790Z,28.25
2023-01-03T00:49:55.673Z,24.98
2023-01-03T00:52:23.393Z,27.20
2023-01-03T00:54:51.180Z,25.65
2023-01-03T00:57:18.919Z,25.77
2023-01-03T00:59:46.606Z,23.77
2023-01-03T01:02:14.530Z,28.75
2023-01-03T01:04:43.816Z,24.52
2023-01-03T01:07:14.510Z,24.30
2023-01-03T01:09:45.031Z,27.13
2023-01-03T01:12:13.191Z,24.48
2023-01-03T01:14:40.976Z,26.05
2023-01-03T01:17:09.666Z,26.40
2023-01-03T01:19:39.487Z,25.42
2023-01-03T01:22:09.722Z,24.15
2023-01-03T01:24:37.483Z,27.15
2023-01-03T01:27:05.508Z,24.80
2023-01-03T01:29:33.369Z,31.17
2023-01-03T01:32:01.772Z,28.45
2023-01-03T01:34:29.901Z,27.20
2023-01-03T01:36:58.084Z,28.63
2023-01-03T01:39:28.411Z,33.05
2023-01-03T01:42:19.887Z,26.15
2023-01-03T01:44:53.151Z,24.60
2023-01-03T01:47:39.894Z,26.77
2023-01-03T01:50:20.974Z,27.35
2023-01-03T01:52:55.920Z,29.02
2023-01-03T01:55:27.419Z,24.80
2023-01-03T01:57:55.206Z,28.65
2023-01-03T02:00:23.379Z,26.52
2023-01-03T02:02:53.673Z,24.17
2023-01-03T02:05:22.809Z,26.40
2023-01-03T02:07:51.572Z,28.70
2023-01-03T02:10:20.286Z,26.42
2023-01-03T02:13:06.784Z,30.15
2023-01-03T02:15:55.200Z,25.30
2023-01-03T02:18:33.569Z,25.95
2023-01-03T02:21:23.417Z,27.85
2023-01-03T02:24:08.269Z,27.75
2023-01-03T02:26:48.393Z,25.45
2023-01-03T02:29:35.113Z,25.90
2023-01-03T02:32:09.623Z,22.02
2023-01-03T02:34:44.293Z,31.27
2023-01-03T02:37:17.197Z,23.02
2023-01-03T02:39:48.918Z,24.10
2023-01-03T02:42:39.042Z,27.92
2023-01-03T02:45:09.501Z,23.95
2023-01-03T02:47:45.136Z,21.20
2023-01-03T02:50:13.880Z,25.93
2023-01-03T02:52:42.833Z,28.55
2023-01-03T02:55:13.826Z,29.00
2023-01-03T02:57:48.063Z,25.85
2023-01-03T03:00:17.899Z,24.92
2023-01-03T03:02:52.111Z,23.15
2023-01-03T03:05:23.672Z,23.98
2023-01-03T03:07:51.583Z,22.10
2023-01-03T03:10:36.912Z,22.80
2023-01-03T03:13:16.488Z,20.90
2023-01-03T03:15:53.203Z,22.02
2023-01-03T03:18:25.556Z,21.73
2023-01-03T03:21:13.487Z,25.73
2023-01-03T03:23:59.331Z,25.10
2023-01-03T03:26:31.165Z,25.00
2023-01-03T03:29:03.185Z,21.15
2023-01-03T03:31:34.863Z,22.13
2023-01-03T03:34:07.887Z,21.42
2023-01-03T03:36:40.471Z,23.65
2023-01-03T03:39:31.181Z,22.60
2023-01-03T03:42:39.762Z,25.08
2023-01-03T03:45:13.693Z,22.38
2023-01-03T03:47:44.982Z,23.58
2023-01-03T03:50:20.592Z,23.92
2023-01-03T03:52:51.100Z,28.93
2023-01-03T03:55:21.534Z,31.05
2023-01-03T03:57:53.816Z,33.08
2023-01-03T04:00:25.411Z,32.33
2023-01-03T04:02:53.910Z,75.30
2023-01-03T04:05:25.039Z,54.78
2023-01-03T04:07:52.792Z,53.00
2023-01-03T04:10:21.206Z,29.08
2023-01-03T04:12:48.892Z,51.33
2023-01-03T04:15:17.013Z,35.25
2023-01-03T04:17:45.462Z,49.22
2023-01-03T04:20:14.095Z,57.55
2023-01-03T04:22:43.208Z,51.42
2023-01-03T04:25:10.975Z,56.85
2023-01-03T04:27:38.813Z,53.90
2023-01-03T04:30:07.894Z,39.63
2023-01-03T04:32:35.602Z,52.75
2023-01-03T04:35:03.401Z,32.58
2023-01-03T04:37:31.248Z,50.33
2023-01-03T04:40:00.451Z,53.80
2023-01-03T04:42:45.833Z,51.05
2023-01-03T04:45:14.047Z,74.97
2023-01-03T04:47:41.805Z,98.57
2023-01-03T04:50:10.541Z,41.78
2023-01-03T04:52:38.309Z,57.38
2023-01-03T04:55:08.720Z,163.50
2023-01-03T04:57:37.217Z,271.98
2023-01-03T05:00:06.136Z,100.10
2023-01-03T05:02:33.865Z,185.25
2023-01-03T05:05:01.631Z,83.18
2023-01-03T05:07:29.459Z,69.05
2023-01-03T05:09:57.362Z,131.30
2023-01-03T05:12:26.791Z,154.38
2023-01-03T05:14:54.859Z,72.32
2023-01-03T05:17:22.627Z,187.25
2023-01-03T05:20:07.594Z,182.38
2023-01-03T05:22:53.007Z,135.85
2023-01-03T05:25:38.282Z,179.00
2023-01-03T05:28:10.977Z,87.80
2023-01-03T05:30:43.117Z,120.70
2023-01-03T05:33:10.809Z,58.88
2023-01-03T05:35:38.687Z,78.18
2023-01-03T05:38:06.731Z,72.15
2023-01-03T05:40:39.365Z,70.47
2023-01-03T05:43:10.566Z,43.47
2023-01-03T05:45:38.452Z,36.40
2023-01-03T05:48:07.219Z,56.25
2023-01-03T05:50:34.972Z,44.78
2023-01-03T05:53:03.890Z,37.50
2023-01-03T05:55:31.722Z,63.63
2023-01-03T05:57:59.507Z,47.83
2023-01-03T06:00:28.643Z,40.28
2023-01-03T06:02:56.636Z,43.60
2023-01-03T06:05:24.453Z,46.50
2023-01-03T06:07:52.219Z,43.78
2023-01-03T06:10:19.910Z,45.00
2023-01-03T06:12:47.612Z,43.95
2023-01-03T06:15:15.274Z,39.40
2023-01-03T06:17:55.255Z,47.80
2023-01-03T06:20:23.321Z,46.67
2023-01-03T06:22:50.957Z,44.97
2023-01-03T06:25:18.830Z,45.05
2023-01-03T06:27:46.755Z,45.70
2023-01-03T06:30:15.667Z,54.10
2023-01-03T06:32:45.622Z,47.60
2023-01-03T06:35:13.511Z,47.25
2023-01-03T06:37:41.283Z,50.00
2023-01-03T06:40:10.121Z,52.95
2023-01-03T06:42:42.287Z,47.95
2023-01-03T06:45:32.929Z,57.45
2023-01-03T06:48:23.967Z,52.35
2023-01-03T06:51:09.721Z,51.33
2023-01-03T06:53:38.943Z,52.50
2023-01-03T06:56:07.289Z,59.92
2023-01-03T06:58:35.975Z,53.50
2023-01-03T07:01:05.455Z,52.25
2023-01-03T07:03:34.821Z,53.92
2023-01-03T07:06:02.623Z,54.72
2023-01-03T07:08:30.331Z,61.42
2023-01-03T07:10:58.003Z,58.15
2023-01-03T07:13:42.987Z,53.20
2023-01-03T07:16:15.049Z,48.78
2023-01-03T07:18:49.358Z,53.60
2023-01-03T07:21:22.527Z,51.38
2023-01-03T07:23:50.304Z,47.17
2023-01-03T07:26:18.147Z,47.58
2023-01-03T07:28:46.038Z,53.97
2023-01-03T07:31:13.970Z,46.28
2023-01-03T07:33:41.730Z,44.80
2023-01-03T07:36:12.323Z,46.55
2023-01-03T07:38:41.149Z,47.53
2023-01-03T07:41:09.464Z,49.25
2023-01-03T07:43:39.362Z,49.05
2023-01-03T07:46:12.787Z,53.97
2023-01-03T07:48:40.870Z,48.60
2023-01-03T07:51:11.971Z,47.38
2023-01-03T07:53:40.092Z,47.97
2023-01-03T07:56:13.214Z,49.83
2023-01-03T07:58:42.852Z,43.83
2023-01-03T08:01:12.999Z,47.17
2023-01-03T08:03:40.882Z,46.22
2023-01-03T08:06:11.363Z,45.72
2023-01-03T08:08:39.167Z,39.92
2023-01-03T08:11:24.987Z,47.00
2023-01-03T08:13:53.043Z,52.92
2023-01-03T08:16:20.832Z,49.58
2023-01-03T08:18:48.666Z,44.90
2023-01-03T08:21:18.010Z,43.72
2023-01-03T08:23:45.757Z,44.85
2023-01-03T08:26:15.820Z,43.88
2023-01-03T08:28:44.485Z,44.00
2023-01-03T08:31:14.312Z,41.47
2023-01-03T08:33:44.074Z,45.17
2023-01-03T08:36:11.901Z,42.17
2023-01-03T08:38:45.547Z,44.95
2023-01-03T08:41:15.774Z,38.10
2023-01-03T08:43:44.506Z,36.67
2023-01-03T08:46:14.032Z,34.95
2023-01-03T08:48:42.286Z,37.75
2023-01-03T08:51:10.290Z,40.47
2023-01-03T08:53:38.007Z,32.55
2023-01-03T08:56:08.454Z,34.40
2023-01-03T08:58:36.235Z,31.88
2023-01-03T09:01:04.050Z,32.08
2023-01-03T09:03:32.048Z,31.80
2023-01-03T09:06:01.297Z,31.70
2023-01-03T09:08:31.297Z,28.75
2023-01-03T09:10:59.018Z,31.73
2023-01-03T09:13:28.068Z,29.35
2023-01-03T09:16:02.134Z,29.33
2023-01-03T09:18:29.999Z,28.33
2023-01-03T09:20:57.771Z,28.75
2023-01-03T09:23:25.599Z,26.55
2023-01-03T09:25:53.652Z,27.55
2023-01-03T09:28:21.448Z,23.85
2023-01-03T09:30:50.758Z,27.10
2023-01-03T09:33:18.461Z,27.63
2023-01-03T09:35:46.175Z,21.00
2023-01-03T09:38:14.254Z,23.25
2023-01-03T09:40:44.084Z,23.75
2023-01-03T09:43:21.398Z,25.95
2023-01-03T09:45:56.619Z,22.05
2023-01-03T09:48:28.679Z,21.10
2023-01-03T09:51:18.308Z,23.25
2023-01-03T09:54:01.890Z,20.42
2023-01-03T09:56:47.081Z,18.97
2023-01-03T09:59:35.170Z,22.70
2023-01-03T10:02:40.732Z,17.95
2023-01-03T10:08:03.246Z,17.23
2023-01-03T10:10:36.959Z,20.27
2023-01-03T10:13:19.485Z,15.90
2023-01-03T10:15:52.929Z,17.00
2023-01-03T10:18:34.305Z,15.50
2023-01-03T10:21:08.603Z,18.63
2023-01-03T10:23:36.686Z,18.05
2023-01-03T10:26:09.968Z,16.73
2023-01-03T10:28:40.972Z,15.50
2023-01-03T10:31:21.517Z,15.25
2023-01-03T10:33:51.489Z,16.33
2023-01-03T10:36:22.095Z,17.90
2023-01-03T10:38:53.294Z,16.95
2023-01-03T10:41:24.714Z,16.20
2023-01-03T10:43:59.569Z,17.48
2023-01-03T10:46:28.303Z,20.05
2023-01-03T10:51:54.334Z,18.45
2023-01-03T10:54:29.903Z,19.00
2023-01-03T10:56:57.991Z,15.17
2023-01-03T10:59:27.458Z,14.40
2023-01-03T11:02:00.957Z,16.13
2023-01-03T11:04:31.034Z,15.10
2023-01-03T11:07:05.494Z,16.55
2023-01-03T11:09:47.035Z,25.63
2023-01-03T11:12:23.061Z,18.23
2023-01-03T11:14:51.848Z,15.13
2023-01-03T11:17:20.925Z,17.73
2023-01-03T11:19:50.803Z,18.20
2023-01-03T11:22:32.359Z,17.17
2023-01-03T11:25:13.444Z,15.80
2023-01-03T11:28:18.198Z,16.17
2023-01-03T11:30:54.123Z,19.00
2023-01-03T11:33:42.654Z,17.13
2023-01-03T11:36:28.028Z,18.10
2023-01-03T11:39:03.428Z,15.02
2023-01-03T11:41:47.215Z,15.38
2023-01-03T11:45:03.902Z,17.30
2023-01-03T11:47:37.662Z,16.02
2023-01-03T11:50:16.944Z,16.52
2023-01-03T11:52:51.067Z,14.85
2023-01-03T11:55:40.435Z,16.08
2023-01-03T11:58:37.578Z,16.13
2023-01-03T12:01:14.974Z,19.60
2023-01-03T12:03:57.161Z,19.92
2023-01-03T12:06:30.125Z,17.10
2023-01-03T12:09:10.691Z,17.40
2023-01-03T12:11:50.841Z,13.38
2023-01-03T12:14:22.265Z,26.65
2023-01-03T12:16:53.640Z,23.65
2023-01-03T12:19:29.088Z,20.23
2023-01-03T12:21:59.863Z,16.40
2023-01-03T12:24:34.529Z,14.85
2023-01-03T12:27:06.887Z,14.60
2023-01-03T12:29:45.025Z,12.90
2023-01-03T12:32:18.129Z,14.82
2023-01-03T12:34:50.063Z,13.88
2023-01-03T12:37:21.716Z,11.27
2023-01-03T12:39:55.535Z,13.77
2023-01-03T12:42:28.760Z,12.50
2023-01-03T12:45:01.486Z,13.45
2023-01-03T12:47:32.048Z,13.73
2023-01-03T12:50:04.441Z,16.55
2023-01-03T12:52:34.276Z,14.95
2023-01-03T12:55:08.315Z,13.68
2023-01-03T12:57:55.209Z,15.45
2023-01-03T13:00:32.067Z,12.50
2023-01-03T19:02:56.159Z,6.17
2023-01-03T19:10:23.104Z,4.47
2023-01-03T19:12:51.496Z,7.82
2023-01-03T19:15:20.575Z,3.67
2023-01-03T19:17:48.347Z,6.53
2023-01-03T19:20:18.638Z,8.77
2023-01-03T19:22:52.149Z,7.88
2023-01-03T19:25:27.254Z,9.95
2023-01-03T19:27:58.718Z,7.68
2023-01-03T19:30:37.299Z,8.98
2023-01-03T19:33:06.870Z,5.60
2023-01-03T19:35:36.408Z,7.80
2023-01-03T19:38:05.839Z,8.48
2023-01-03T19:40:36.079Z,7.40
2023-01-03T19:43:07.921Z,7.13
2023-01-03T19:45:37.527Z,9.10
2023-01-03T19:48:13.517Z,6.70
2023-01-03T19:50:41.256Z,6.40
2023-01-03T19:55:40.737Z,3.45
2023-01-03T20:00:40.194Z,3.92
2023-01-03T20:03:11.472Z,4.72
2023-01-03T20:05:39.381Z,5.38
2023-01-03T20:08:12.529Z,4.93
2023-01-03T20:10:42.067Z,6.28
2023-01-03T20:13:15.406Z,6.82
2023-01-03T20:15:44.905Z,5.65
